sensor_id;sensor_type;location;lat;lon;timestamp;temperature;humidity
2439;DHT22;14509;47.992;7.848;2024-03-23T00:54:29;21.20;38.50
2439;DHT22;14509;47.992;7.848;2024-03-23T00:56:31;21.10;38.40
2439;DHT22;14509;47.992;7.848;2024-03-23T00:58:32;21.10;38.30
2439;DHT22;14509;47.992;7.848;2024-03-23T01:00:34;21.10;38.30
2439;DHT22;14509;47.992;7.848;2024-03-23T01:02:34;21.10;38.10
2439;DHT22;14509;47.992;7.848;2024-03-23T01:04:36;21.10;38.30
2439;DHT22;14509;47.992;7.848;2024-03-23T01:06:37;22.50;39.10
2439;DHT22;14509;47.992;7.848;2024-03-23T01:08:40;21.10;38.20
2439;DHT22;14509;47.992;7.848;2024-03-23T01:10:41;21.00;38.30
2439;DHT22;14509;47.992;7.848;2024-03-23T01:12:43;22.90;40.00
2439;DHT22;14509;47.992;7.848;2024-03-23T01:14:44;21.00;38.40
2439;DHT22;14509;47.992;7.848;2024-03-23T01:16:46;21.00;38.50
2439;DHT22;14509;47.992;7.848;2024-03-23T01:18:47;21.00;38.60
2439;DHT22;14509;47.992;7.848;2024-03-23T01:20:49;21.00;38.70
2439;DHT22;14509;47.992;7.848;2024-03-23T01:22:50;20.90;38.80
2439;DHT22;14509;47.992;7.848;2024-03-23T01:24:52;20.90;39.00
2439;DHT22;14509;47.992;7.848;2024-03-23T01:26:54;20.90;39.00
2439;DHT22;14509;47.992;7.848;2024-03-23T01:28:55;20.90;39.70
2439;DHT22;14509;47.992;7.848;2024-03-23T01:30:57;20.90;39.50
2439;DHT22;14509;47.992;7.848;2024-03-23T01:32:57;20.50;38.60
2439;DHT22;14509;47.992;7.848;2024-03-23T01:34:59;21.10;38.90
2439;DHT22;14509;47.992;7.848;2024-03-23T01:37:00;21.20;38.80
2439;DHT22;14509;47.992;7.848;2024-03-23T01:39:02;21.20;38.60
2439;DHT22;14509;47.992;7.848;2024-03-23T01:41:06;21.30;38.40
2439;DHT22;14509;47.992;7.848;2024-03-23T01:43:08;21.20;38.50
2439;DHT22;14509;47.992;7.848;2024-03-23T01:45:09;21.20;38.70
2439;DHT22;14509;47.992;7.848;2024-03-23T01:47:10;21.20;38.80
2439;DHT22;14509;47.992;7.848;2024-03-23T01:49:13;21.10;38.90
2439;DHT22;14509;47.992;7.848;2024-03-23T01:51:14;21.00;39.10
2439;DHT22;14509;47.992;7.848;2024-03-23T01:53:16;20.80;39.40
2439;DHT22;14509;47.992;7.848;2024-03-23T01:55:18;22.60;41.20
2439;DHT22;14509;47.992;7.848;2024-03-23T01:57:21;20.60;39.90
2439;DHT22;14509;47.992;7.848;2024-03-23T01:59:22;20.60;40.00
2439;DHT22;14509;47.992;7.848;2024-03-23T02:01:23;20.50;40.10
2439;DHT22;14509;47.992;7.848;2024-03-23T02:03:25;20.40;40.30
2439;DHT22;14509;47.992;7.848;2024-03-23T02:05:28;20.40;40.60
2439;DHT22;14509;47.992;7.848;2024-03-23T02:07:29;20.40;40.60
2439;DHT22;14509;47.992;7.848;2024-03-23T02:09:31;20.40;40.60
2439;DHT22;14509;47.992;7.848;2024-03-23T02:11:32;20.30;41.00
2439;DHT22;14509;47.992;7.848;2024-03-23T02:13:35;20.30;40.90
2439;DHT22;14509;47.992;7.848;2024-03-23T02:15:36;20.50;41.00
2439;DHT22;14509;47.992;7.848;2024-03-23T02:17:38;20.50;40.80
2439;DHT22;14509;47.992;7.848;2024-03-23T02:19:39;20.50;40.80
2439;DHT22;14509;47.992;7.848;2024-03-23T02:21:41;20.50;40.80
2439;DHT22;14509;47.992;7.848;2024-03-23T02:23:43;20.60;40.70
2439;DHT22;14509;47.992;7.848;2024-03-23T02:25:45;20.70;40.60
2439;DHT22;14509;47.992;7.848;2024-03-23T02:27:46;20.60;40.60
2439;DHT22;14509;47.992;7.848;2024-03-23T02:29:48;20.50;40.90
2439;DHT22;14509;47.992;7.848;2024-03-23T02:31:48;20.50;40.90
2439;DHT22;14509;47.992;7.848;2024-03-23T02:33:50;20.50;41.00
2439;DHT22;14509;47.992;7.848;2024-03-23T02:35:56;20.50;41.00
2439;DHT22;14509;47.992;7.848;2024-03-23T02:37:57;21.00;41.50
2439;DHT22;14509;47.992;7.848;2024-03-23T02:40:00;20.50;41.00
2439;DHT22;14509;47.992;7.848;2024-03-23T02:42:01;20.40;41.10
2439;DHT22;14509;47.992;7.848;2024-03-23T02:44:02;20.30;41.20
2439;DHT22;14509;47.992;7.848;2024-03-23T02:46:04;20.40;41.20
2439;DHT22;14509;47.992;7.848;2024-03-23T02:48:06;20.40;41.20
2439;DHT22;14509;47.992;7.848;2024-03-23T02:50:08;20.40;41.30
2439;DHT22;14509;47.992;7.848;2024-03-23T02:52:09;20.40;41.30
2439;DHT22;14509;47.992;7.848;2024-03-23T02:54:11;20.40;41.40
2439;DHT22;14509;47.992;7.848;2024-03-23T02:56:13;20.20;41.60
2439;DHT22;14509;47.992;7.848;2024-03-23T02:58:17;20.20;41.70
2439;DHT22;14509;47.992;7.848;2024-03-23T03:00:18;20.10;41.70
2439;DHT22;14509;47.992;7.848;2024-03-23T03:02:20;20.10;41.90
2439;DHT22;14509;47.992;7.848;2024-03-23T03:04:22;20.50;42.40
2439;DHT22;14509;47.992;7.848;2024-03-23T03:06:23;20.00;42.10
2439;DHT22;14509;47.992;7.848;2024-03-23T03:08:25;20.00;42.30
2439;DHT22;14509;47.992;7.848;2024-03-23T03:10:28;20.40;42.80
2439;DHT22;14509;47.992;7.848;2024-03-23T03:12:32;19.90;42.60
2439;DHT22;14509;47.992;7.848;2024-03-23T03:14:33;19.90;42.70
2439;DHT22;14509;47.992;7.848;2024-03-23T03:16:35;19.90;42.70
2439;DHT22;14509;47.992;7.848;2024-03-23T03:18:36;19.90;42.80
2439;DHT22;14509;47.992;7.848;2024-03-23T03:20:38;19.80;42.90
2439;DHT22;14509;47.992;7.848;2024-03-23T03:22:39;19.80;43.10
2439;DHT22;14509;47.992;7.848;2024-03-23T03:24:41;19.80;43.20
2439;DHT22;14509;47.992;7.848;2024-03-23T03:26:42;19.80;43.20
2439;DHT22;14509;47.992;7.848;2024-03-23T03:28:46;19.90;43.00
2439;DHT22;14509;47.992;7.848;2024-03-23T03:30:49;20.00;43.10
2439;DHT22;14509;47.992;7.848;2024-03-23T03:32:53;20.00;42.90
2439;DHT22;14509;47.992;7.848;2024-03-23T03:34:54;20.10;43.00
2439;DHT22;14509;47.992;7.848;2024-03-23T03:36:56;20.10;42.90
2439;DHT22;14509;47.992;7.848;2024-03-23T03:38:57;20.10;43.50
2439;DHT22;14509;47.992;7.848;2024-03-23T03:40:59;20.20;42.80
2439;DHT22;14509;47.992;7.848;2024-03-23T03:43:00;20.20;42.80
2439;DHT22;14509;47.992;7.848;2024-03-23T03:45:04;22.40;45.00
2439;DHT22;14509;47.992;7.848;2024-03-23T03:47:05;20.10;44.20
2439;DHT22;14509;47.992;7.848;2024-03-23T03:49:07;20.10;44.20
2439;DHT22;14509;47.992;7.848;2024-03-23T03:51:08;20.00;44.00
2439;DHT22;14509;47.992;7.848;2024-03-23T03:53:10;19.90;44.00
2439;DHT22;14509;47.992;7.848;2024-03-23T03:55:13;19.90;44.20
2439;DHT22;14509;47.992;7.848;2024-03-23T03:57:15;19.90;44.50
2439;DHT22;14509;47.992;7.848;2024-03-23T03:59:17;19.70;45.00
2439;DHT22;14509;47.992;7.848;2024-03-23T04:01:22;19.70;45.70
2439;DHT22;14509;47.992;7.848;2024-03-23T04:03:23;19.70;46.10
2439;DHT22;14509;47.992;7.848;2024-03-23T04:05:24;21.10;48.00
2439;DHT22;14509;47.992;7.848;2024-03-23T04:07:25;19.50;46.00
2439;DHT22;14509;47.992;7.848;2024-03-23T04:09:27;19.40;45.90
2439;DHT22;14509;47.992;7.848;2024-03-23T04:11:28;19.30;46.00
2439;DHT22;14509;47.992;7.848;2024-03-23T04:13:29;19.30;46.10
2439;DHT22;14509;47.992;7.848;2024-03-23T04:15:31;19.20;46.50
2439;DHT22;14509;47.992;7.848;2024-03-23T04:17:33;19.30;46.60
2439;DHT22;14509;47.992;7.848;2024-03-23T04:19:35;19.30;47.00
2439;DHT22;14509;47.992;7.848;2024-03-23T04:21:35;19.30;46.90
2439;DHT22;14509;47.992;7.848;2024-03-23T04:23:37;19.20;46.70
2439;DHT22;14509;47.992;7.848;2024-03-23T04:25:38;19.30;46.80
2439;DHT22;14509;47.992;7.848;2024-03-23T04:27:40;19.30;46.90
2439;DHT22;14509;47.992;7.848;2024-03-23T04:29:42;19.30;46.80
2439;DHT22;14509;47.992;7.848;2024-03-23T04:31:46;19.30;46.80
2439;DHT22;14509;47.992;7.848;2024-03-23T04:33:50;19.30;46.90
2439;DHT22;14509;47.992;7.848;2024-03-23T04:35:50;20.60;48.20
2439;DHT22;14509;47.992;7.848;2024-03-23T04:37:53;19.10;47.50
2439;DHT22;14509;47.992;7.848;2024-03-23T04:39:56;18.90;47.60
2439;DHT22;14509;47.992;7.848;2024-03-23T04:41:57;18.90;47.70
2439;DHT22;14509;47.992;7.848;2024-03-23T04:43:58;18.90;47.70
2439;DHT22;14509;47.992;7.848;2024-03-23T04:45:59;18.80;47.70
2439;DHT22;14509;47.992;7.848;2024-03-23T04:48:01;18.90;47.80
2439;DHT22;14509;47.992;7.848;2024-03-23T04:50:04;19.00;47.70
2439;DHT22;14509;47.992;7.848;2024-03-23T04:52:06;19.10;47.60
2439;DHT22;14509;47.992;7.848;2024-03-23T04:54:07;19.00;47.70
2439;DHT22;14509;47.992;7.848;2024-03-23T04:56:09;19.10;48.60
2439;DHT22;14509;47.992;7.848;2024-03-23T04:58:10;19.30;49.70
2439;DHT22;14509;47.992;7.848;2024-03-23T05:00:13;18.90;50.20
2439;DHT22;14509;47.992;7.848;2024-03-23T05:02:17;18.70;50.50
2439;DHT22;14509;47.992;7.848;2024-03-23T05:04:19;18.50;50.80
2439;DHT22;14509;47.992;7.848;2024-03-23T05:06:21;18.40;51.10
2439;DHT22;14509;47.992;7.848;2024-03-23T05:08:23;18.30;51.40
2439;DHT22;14509;47.992;7.848;2024-03-23T05:10:24;18.30;51.60
2439;DHT22;14509;47.992;7.848;2024-03-23T05:12:25;20.10;53.50
2439;DHT22;14509;47.992;7.848;2024-03-23T05:14:26;18.10;51.90
2439;DHT22;14509;47.992;7.848;2024-03-23T05:16:28;18.10;52.20
2439;DHT22;14509;47.992;7.848;2024-03-23T05:18:29;18.50;52.60
2439;DHT22;14509;47.992;7.848;2024-03-23T05:20:31;18.20;52.80
2439;DHT22;14509;47.992;7.848;2024-03-23T05:22:34;18.00;53.20
2439;DHT22;14509;47.992;7.848;2024-03-23T05:24:35;17.90;53.30
2439;DHT22;14509;47.992;7.848;2024-03-23T05:26:36;17.80;53.10
2439;DHT22;14509;47.992;7.848;2024-03-23T05:28:37;17.70;53.10
2439;DHT22;14509;47.992;7.848;2024-03-23T05:30:39;17.90;53.40
2439;DHT22;14509;47.992;7.848;2024-03-23T05:32:40;17.60;53.60
2439;DHT22;14509;47.992;7.848;2024-03-23T05:34:44;18.20;54.30
2439;DHT22;14509;47.992;7.848;2024-03-23T05:36:45;17.60;53.30
2439;DHT22;14509;47.992;7.848;2024-03-23T05:38:48;17.80;53.70
2439;DHT22;14509;47.992;7.848;2024-03-23T05:40:53;17.40;53.20
2439;DHT22;14509;47.992;7.848;2024-03-23T05:42:55;17.40;53.60
2439;DHT22;14509;47.992;7.848;2024-03-23T05:44:56;17.30;53.60
2439;DHT22;14509;47.992;7.848;2024-03-23T05:46:58;17.30;53.60
2439;DHT22;14509;47.992;7.848;2024-03-23T05:49:01;17.30;53.80
2439;DHT22;14509;47.992;7.848;2024-03-23T05:51:04;17.30;53.80
2439;DHT22;14509;47.992;7.848;2024-03-23T05:53:04;17.40;53.90
2439;DHT22;14509;47.992;7.848;2024-03-23T05:55:08;17.20;54.00
2439;DHT22;14509;47.992;7.848;2024-03-23T05:57:09;17.30;54.10
2439;DHT22;14509;47.992;7.848;2024-03-23T05:59:12;17.20;54.00
2439;DHT22;14509;47.992;7.848;2024-03-23T06:01:13;17.30;53.90
2439;DHT22;14509;47.992;7.848;2024-03-23T06:03:15;17.40;53.60
2439;DHT22;14509;47.992;7.848;2024-03-23T06:05:16;17.30;53.50
2439;DHT22;14509;47.992;7.848;2024-03-23T06:07:17;17.40;53.30
2439;DHT22;14509;47.992;7.848;2024-03-23T06:09:19;18.60;52.90
2439;DHT22;14509;47.992;7.848;2024-03-23T06:11:21;17.50;52.30
2439;DHT22;14509;47.992;7.848;2024-03-23T06:13:23;17.00;50.70
2439;DHT22;14509;47.992;7.848;2024-03-23T06:15:30;16.80;50.30
2439;DHT22;14509;47.992;7.848;2024-03-23T06:17:32;16.70;49.40
2439;DHT22;14509;47.992;7.848;2024-03-23T06:19:33;16.60;49.00
2439;DHT22;14509;47.992;7.848;2024-03-23T06:21:35;16.60;48.70
2439;DHT22;14509;47.992;7.848;2024-03-23T06:23:36;16.10;49.60
2439;DHT22;14509;47.992;7.848;2024-03-23T06:25:38;17.00;50.30
2439;DHT22;14509;47.992;7.848;2024-03-23T06:27:40;17.50;50.50
2439;DHT22;14509;47.992;7.848;2024-03-23T06:29:42;15.60;48.50
2439;DHT22;14509;47.992;7.848;2024-03-23T06:31:43;15.50;49.80
2439;DHT22;14509;47.992;7.848;2024-03-23T06:33:45;16.40;50.90
2439;DHT22;14509;47.992;7.848;2024-03-23T06:35:50;15.10;51.00
2439;DHT22;14509;47.992;7.848;2024-03-23T06:37:52;15.00;55.30
2439;DHT22;14509;47.992;7.848;2024-03-23T06:39:53;14.50;54.10
2439;DHT22;14509;47.992;7.848;2024-03-23T06:41:55;15.10;56.80
2439;DHT22;14509;47.992;7.848;2024-03-23T06:43:58;15.30;57.60
2439;DHT22;14509;47.992;7.848;2024-03-23T06:46:02;14.70;56.80
2439;DHT22;14509;47.992;7.848;2024-03-23T06:48:05;13.50;56.70
2439;DHT22;14509;47.992;7.848;2024-03-23T06:50:08;13.40;56.30
2439;DHT22;14509;47.992;7.848;2024-03-23T06:52:10;13.40;56.60
2439;DHT22;14509;47.992;7.848;2024-03-23T06:54:12;13.40;56.40
2439;DHT22;14509;47.992;7.848;2024-03-23T06:56:13;13.30;54.90
2439;DHT22;14509;47.992;7.848;2024-03-23T06:58:15;14.40;55.90
2439;DHT22;14509;47.992;7.848;2024-03-23T07:00:18;13.20;54.90
2439;DHT22;14509;47.992;7.848;2024-03-23T07:02:20;13.20;54.80
2439;DHT22;14509;47.992;7.848;2024-03-23T07:04:21;13.20;55.10
2439;DHT22;14509;47.992;7.848;2024-03-23T07:06:22;13.10;54.00
2439;DHT22;14509;47.992;7.848;2024-03-23T07:08:23;14.30;55.40
2439;DHT22;14509;47.992;7.848;2024-03-23T07:10:25;13.10;54.20
2439;DHT22;14509;47.992;7.848;2024-03-23T07:12:26;14.00;54.60
2439;DHT22;14509;47.992;7.848;2024-03-23T07:14:28;13.30;54.10
2439;DHT22;14509;47.992;7.848;2024-03-23T07:16:30;13.20;53.60
2439;DHT22;14509;47.992;7.848;2024-03-23T07:18:32;13.30;53.90
2439;DHT22;14509;47.992;7.848;2024-03-23T07:20:35;13.90;54.10
2439;DHT22;14509;47.992;7.848;2024-03-23T07:22:37;14.00;54.20
2439;DHT22;14509;47.992;7.848;2024-03-23T07:24:39;13.70;53.50
2439;DHT22;14509;47.992;7.848;2024-03-23T07:26:41;13.80;53.30
2439;DHT22;14509;47.992;7.848;2024-03-23T07:28:43;13.80;53.50
2439;DHT22;14509;47.992;7.848;2024-03-23T07:30:46;15.40;53.50
2439;DHT22;14509;47.992;7.848;2024-03-23T07:32:48;13.70;52.10
2439;DHT22;14509;47.992;7.848;2024-03-23T07:34:50;13.60;52.10
2439;DHT22;14509;47.992;7.848;2024-03-23T07:36:51;13.40;51.50
2439;DHT22;14509;47.992;7.848;2024-03-23T07:38:53;13.40;52.50
2439;DHT22;14509;47.992;7.848;2024-03-23T07:41:03;12.90;51.80
2439;DHT22;14509;47.992;7.848;2024-03-23T07:43:05;13.70;52.40
2439;DHT22;14509;47.992;7.848;2024-03-23T07:45:06;13.40;51.80
2439;DHT22;14509;47.992;7.848;2024-03-23T07:47:10;13.50;52.30
2439;DHT22;14509;47.992;7.848;2024-03-23T07:49:12;13.60;51.90
2439;DHT22;14509;47.992;7.848;2024-03-23T07:51:17;13.70;51.80
2439;DHT22;14509;47.992;7.848;2024-03-23T07:53:18;14.40;51.60
2439;DHT22;14509;47.992;7.848;2024-03-23T07:55:20;13.60;51.00
2439;DHT22;14509;47.992;7.848;2024-03-23T07:57:21;14.10;51.70
2439;DHT22;14509;47.992;7.848;2024-03-23T07:59:23;13.80;50.40
2439;DHT22;14509;47.992;7.848;2024-03-23T08:01:26;13.80;50.50
2439;DHT22;14509;47.992;7.848;2024-03-23T08:03:28;13.90;50.40
2439;DHT22;14509;47.992;7.848;2024-03-23T08:05:30;13.90;50.40
2439;DHT22;14509;47.992;7.848;2024-03-23T08:07:32;14.00;50.30
2439;DHT22;14509;47.992;7.848;2024-03-23T08:09:33;14.20;49.90
2439;DHT22;14509;47.992;7.848;2024-03-23T08:11:35;14.10;47.70
2439;DHT22;14509;47.992;7.848;2024-03-23T08:13:37;14.30;48.30
2439;DHT22;14509;47.992;7.848;2024-03-23T08:15:39;15.30;48.00
2439;DHT22;14509;47.992;7.848;2024-03-23T08:17:40;14.10;45.00
2439;DHT22;14509;47.992;7.848;2024-03-23T08:19:42;14.30;45.60
2439;DHT22;14509;47.992;7.848;2024-03-23T08:21:44;14.00;44.80
2439;DHT22;14509;47.992;7.848;2024-03-23T08:23:46;13.90;44.20
2439;DHT22;14509;47.992;7.848;2024-03-23T08:25:47;13.80;44.30
2439;DHT22;14509;47.992;7.848;2024-03-23T08:27:49;15.10;45.30
2439;DHT22;14509;47.992;7.848;2024-03-23T08:29:50;13.90;43.50
2439;DHT22;14509;47.992;7.848;2024-03-23T08:31:52;13.90;43.80
2439;DHT22;14509;47.992;7.848;2024-03-23T08:33:52;13.90;42.90
2439;DHT22;14509;47.992;7.848;2024-03-23T08:35:55;14.00;43.20
2439;DHT22;14509;47.992;7.848;2024-03-23T08:37:57;14.00;41.30
2439;DHT22;14509;47.992;7.848;2024-03-23T08:39:59;14.30;41.10
2439;DHT22;14509;47.992;7.848;2024-03-23T08:42:00;14.40;41.20
2439;DHT22;14509;47.992;7.848;2024-03-23T08:44:02;14.70;41.70
2439;DHT22;14509;47.992;7.848;2024-03-23T08:46:03;14.80;40.30
2439;DHT22;14509;47.992;7.848;2024-03-23T08:48:07;15.10;40.30
2439;DHT22;14509;47.992;7.848;2024-03-23T08:50:09;15.20;39.80
2439;DHT22;14509;47.992;7.848;2024-03-23T08:52:11;15.30;38.80
2439;DHT22;14509;47.992;7.848;2024-03-23T08:54:13;15.40;39.10
2439;DHT22;14509;47.992;7.848;2024-03-23T08:56:15;15.50;38.70
2439;DHT22;14509;47.992;7.848;2024-03-23T08:58:16;15.70;38.20
2439;DHT22;14509;47.992;7.848;2024-03-23T09:00:20;15.90;38.00
2439;DHT22;14509;47.992;7.848;2024-03-23T09:02:22;15.80;37.00
2439;DHT22;14509;47.992;7.848;2024-03-23T09:04:24;15.80;37.10
2439;DHT22;14509;47.992;7.848;2024-03-23T09:06:25;15.70;37.30
2439;DHT22;14509;47.992;7.848;2024-03-23T09:08:26;15.80;37.60
2439;DHT22;14509;47.992;7.848;2024-03-23T09:10:29;15.80;36.90
2439;DHT22;14509;47.992;7.848;2024-03-23T09:12:30;15.70;36.60
2439;DHT22;14509;47.992;7.848;2024-03-23T09:14:31;15.60;37.60
2439;DHT22;14509;47.992;7.848;2024-03-23T09:16:33;15.40;39.60
2439;DHT22;14509;47.992;7.848;2024-03-23T09:18:35;15.20;39.70
2439;DHT22;14509;47.992;7.848;2024-03-23T09:20:37;15.10;40.30
2439;DHT22;14509;47.992;7.848;2024-03-23T09:22:38;14.90;40.70
2439;DHT22;14509;47.992;7.848;2024-03-23T09:24:40;14.80;42.10
2439;DHT22;14509;47.992;7.848;2024-03-23T09:26:42;16.20;43.50
2439;DHT22;14509;47.992;7.848;2024-03-23T09:28:43;16.40;44.20
2439;DHT22;14509;47.992;7.848;2024-03-23T09:30:45;14.60;43.60
2439;DHT22;14509;47.992;7.848;2024-03-23T09:32:46;14.40;43.90
2439;DHT22;14509;47.992;7.848;2024-03-23T09:34:47;14.30;44.80
2439;DHT22;14509;47.992;7.848;2024-03-23T09:36:51;14.40;44.80
2439;DHT22;14509;47.992;7.848;2024-03-23T09:38:52;14.30;46.10
2439;DHT22;14509;47.992;7.848;2024-03-23T09:40:54;14.40;46.90
2439;DHT22;14509;47.992;7.848;2024-03-23T09:42:56;14.60;46.50
2439;DHT22;14509;47.992;7.848;2024-03-23T09:44:59;15.10;44.70
2439;DHT22;14509;47.992;7.848;2024-03-23T09:47:01;14.60;44.30
2439;DHT22;14509;47.992;7.848;2024-03-23T09:49:02;14.70;43.90
2439;DHT22;14509;47.992;7.848;2024-03-23T09:51:05;14.70;43.20
2439;DHT22;14509;47.992;7.848;2024-03-23T09:53:10;14.80;41.90
2439;DHT22;14509;47.992;7.848;2024-03-23T09:55:13;14.80;43.00
2439;DHT22;14509;47.992;7.848;2024-03-23T09:57:14;15.90;42.20
2439;DHT22;14509;47.992;7.848;2024-03-23T09:59:17;15.20;41.60
2439;DHT22;14509;47.992;7.848;2024-03-23T10:01:18;15.50;40.90
2439;DHT22;14509;47.992;7.848;2024-03-23T10:03:20;16.00;40.00
2439;DHT22;14509;47.992;7.848;2024-03-23T10:05:22;16.00;37.10
2439;DHT22;14509;47.992;7.848;2024-03-23T10:07:25;16.20;38.00
2439;DHT22;14509;47.992;7.848;2024-03-23T10:09:26;16.60;38.40
2439;DHT22;14509;47.992;7.848;2024-03-23T10:11:28;16.60;36.80
2439;DHT22;14509;47.992;7.848;2024-03-23T10:13:29;16.60;36.30
2439;DHT22;14509;47.992;7.848;2024-03-23T10:15:34;17.50;36.10
2439;DHT22;14509;47.992;7.848;2024-03-23T10:17:36;16.60;35.00
2439;DHT22;14509;47.992;7.848;2024-03-23T10:19:38;16.40;34.70
2439;DHT22;14509;47.992;7.848;2024-03-23T10:21:39;16.30;33.70
2439;DHT22;14509;47.992;7.848;2024-03-23T10:23:42;16.20;34.50
2439;DHT22;14509;47.992;7.848;2024-03-23T10:25:43;16.00;34.80
2439;DHT22;14509;47.992;7.848;2024-03-23T10:27:58;16.00;35.20
2439;DHT22;14509;47.992;7.848;2024-03-23T10:30:08;15.90;35.50
2439;DHT22;14509;47.992;7.848;2024-03-23T10:32:13;15.80;35.10
2439;DHT22;14509;47.992;7.848;2024-03-23T10:34:14;15.80;35.70
2439;DHT22;14509;47.992;7.848;2024-03-23T10:36:17;15.80;36.10
2439;DHT22;14509;47.992;7.848;2024-03-23T10:38:19;17.30;39.30
2439;DHT22;14509;47.992;7.848;2024-03-23T10:40:21;15.20;41.30
2439;DHT22;14509;47.992;7.848;2024-03-23T10:42:23;13.90;43.40
2439;DHT22;14509;47.992;7.848;2024-03-23T10:44:24;13.40;45.70
2439;DHT22;14509;47.992;7.848;2024-03-23T10:46:29;14.20;49.00
2439;DHT22;14509;47.992;7.848;2024-03-23T10:48:33;12.30;49.80
2439;DHT22;14509;47.992;7.848;2024-03-23T10:50:35;12.30;51.20
2439;DHT22;14509;47.992;7.848;2024-03-23T10:52:36;12.00;52.10
2439;DHT22;14509;47.992;7.848;2024-03-23T10:54:39;11.80;51.60
2439;DHT22;14509;47.992;7.848;2024-03-23T10:56:42;11.70;52.50
2439;DHT22;14509;47.992;7.848;2024-03-23T10:58:46;11.60;53.80
2439;DHT22;14509;47.992;7.848;2024-03-23T11:00:48;11.60;53.40
2439;DHT22;14509;47.992;7.848;2024-03-23T11:02:50;11.70;53.20
2439;DHT22;14509;47.992;7.848;2024-03-23T11:04:52;11.80;52.60
2439;DHT22;14509;47.992;7.848;2024-03-23T11:06:54;12.10;53.00
2439;DHT22;14509;47.992;7.848;2024-03-23T11:08:55;12.20;52.50
2439;DHT22;14509;47.992;7.848;2024-03-23T11:11:12;12.20;51.50
2439;DHT22;14509;47.992;7.848;2024-03-23T11:13:22;12.50;51.80
2439;DHT22;14509;47.992;7.848;2024-03-23T11:15:25;12.70;52.00
2439;DHT22;14509;47.992;7.848;2024-03-23T11:17:26;12.80;51.90
2439;DHT22;14509;47.992;7.848;2024-03-23T11:19:35;13.00;52.20
2439;DHT22;14509;47.992;7.848;2024-03-23T11:21:53;13.40;52.00
2439;DHT22;14509;47.992;7.848;2024-03-23T11:24:13;13.50;51.90
2439;DHT22;14509;47.992;7.848;2024-03-23T11:26:14;13.70;50.80
2439;DHT22;14509;47.992;7.848;2024-03-23T11:28:16;14.00;50.90
2439;DHT22;14509;47.992;7.848;2024-03-23T11:30:19;14.20;51.30
2439;DHT22;14509;47.992;7.848;2024-03-23T11:32:22;14.50;50.00
2439;DHT22;14509;47.992;7.848;2024-03-23T11:34:23;14.80;49.10
2439;DHT22;14509;47.992;7.848;2024-03-23T11:36:25;15.00;47.90
2439;DHT22;14509;47.992;7.848;2024-03-23T11:38:27;15.20;47.80
2439;DHT22;14509;47.992;7.848;2024-03-23T11:40:29;15.50;47.40
2439;DHT22;14509;47.992;7.848;2024-03-23T11:42:31;15.60;46.90
2439;DHT22;14509;47.992;7.848;2024-03-23T11:44:33;16.90;47.20
2439;DHT22;14509;47.992;7.848;2024-03-23T11:46:34;15.90;45.60
2439;DHT22;14509;47.992;7.848;2024-03-23T11:48:36;17.20;46.30
2439;DHT22;14509;47.992;7.848;2024-03-23T11:50:38;16.00;44.80
2439;DHT22;14509;47.992;7.848;2024-03-23T11:52:41;16.00;45.40
2439;DHT22;14509;47.992;7.848;2024-03-23T11:54:43;16.10;45.40
2439;DHT22;14509;47.992;7.848;2024-03-23T11:56:54;16.30;45.40
2439;DHT22;14509;47.992;7.848;2024-03-23T11:58:55;16.50;44.00
2439;DHT22;14509;47.992;7.848;2024-03-23T12:00:58;16.80;44.20
2439;DHT22;14509;47.992;7.848;2024-03-23T12:03:00;17.00;43.30
2439;DHT22;14509;47.992;7.848;2024-03-23T12:05:14;17.20;42.70
2439;DHT22;14509;47.992;7.848;2024-03-23T12:07:16;17.40;42.20
2439;DHT22;14509;47.992;7.848;2024-03-23T12:09:19;19.00;42.40
2439;DHT22;14509;47.992;7.848;2024-03-23T12:11:21;17.80;41.30
2439;DHT22;14509;47.992;7.848;2024-03-23T12:13:24;18.10;40.10
2439;DHT22;14509;47.992;7.848;2024-03-23T12:15:25;18.20;39.90
2439;DHT22;14509;47.992;7.848;2024-03-23T12:17:26;18.30;38.50
2439;DHT22;14509;47.992;7.848;2024-03-23T12:19:28;20.10;40.00
2439;DHT22;14509;47.992;7.848;2024-03-23T12:21:29;19.20;38.10
2439;DHT22;14509;47.992;7.848;2024-03-23T12:23:31;18.60;37.50
2439;DHT22;14509;47.992;7.848;2024-03-23T12:25:33;18.70;36.50
2439;DHT22;14509;47.992;7.848;2024-03-23T12:27:37;18.60;36.50
2439;DHT22;14509;47.992;7.848;2024-03-23T12:29:37;18.70;36.20
2439;DHT22;14509;47.992;7.848;2024-03-23T12:31:40;18.70;35.70
2439;DHT22;14509;47.992;7.848;2024-03-23T12:33:40;18.60;35.10
2439;DHT22;14509;47.992;7.848;2024-03-23T12:35:43;18.50;34.20
2439;DHT22;14509;47.992;7.848;2024-03-23T12:37:44;18.40;34.30
2439;DHT22;14509;47.992;7.848;2024-03-23T12:39:45;18.30;34.00
2439;DHT22;14509;47.992;7.848;2024-03-23T12:41:46;18.00;34.10
2439;DHT22;14509;47.992;7.848;2024-03-23T12:43:50;17.90;34.50
2439;DHT22;14509;47.992;7.848;2024-03-23T12:45:50;17.70;34.10
2439;DHT22;14509;47.992;7.848;2024-03-23T12:47:52;18.10;35.40
2439;DHT22;14509;47.992;7.848;2024-03-23T12:49:54;17.20;35.40
2439;DHT22;14509;47.992;7.848;2024-03-23T12:51:56;17.30;35.20
2439;DHT22;14509;47.992;7.848;2024-03-23T12:53:57;17.30;35.50
2439;DHT22;14509;47.992;7.848;2024-03-23T12:55:59;17.50;35.20
2439;DHT22;14509;47.992;7.848;2024-03-23T12:58:00;17.70;35.50
2439;DHT22;14509;47.992;7.848;2024-03-23T13:00:04;17.90;35.40
2439;DHT22;14509;47.992;7.848;2024-03-23T13:02:05;18.00;35.40
2439;DHT22;14509;47.992;7.848;2024-03-23T13:04:08;18.10;34.30
2439;DHT22;14509;47.992;7.848;2024-03-23T13:06:09;18.10;34.60
2439;DHT22;14509;47.992;7.848;2024-03-23T13:08:11;18.10;35.00
2439;DHT22;14509;47.992;7.848;2024-03-23T13:10:12;17.90;35.20
2439;DHT22;14509;47.992;7.848;2024-03-23T13:12:15;17.70;35.80
2439;DHT22;14509;47.992;7.848;2024-03-23T13:14:16;17.70;36.30
2439;DHT22;14509;47.992;7.848;2024-03-23T13:16:19;17.80;35.80
2439;DHT22;14509;47.992;7.848;2024-03-23T13:18:20;17.80;34.80
2439;DHT22;14509;47.992;7.848;2024-03-23T13:20:22;17.80;34.20
2439;DHT22;14509;47.992;7.848;2024-03-23T13:22:23;17.90;35.10
2439;DHT22;14509;47.992;7.848;2024-03-23T13:24:25;19.10;34.90
2439;DHT22;14509;47.992;7.848;2024-03-23T13:26:26;18.00;32.90
2439;DHT22;14509;47.992;7.848;2024-03-23T13:28:28;17.90;31.10
2439;DHT22;14509;47.992;7.848;2024-03-23T13:30:29;17.70;31.00
2439;DHT22;14509;47.992;7.848;2024-03-23T13:32:33;17.40;30.30
2439;DHT22;14509;47.992;7.848;2024-03-23T13:34:33;17.50;31.20
2439;DHT22;14509;47.992;7.848;2024-03-23T13:36:35;17.70;32.00
2439;DHT22;14509;47.992;7.848;2024-03-23T13:38:36;18.50;31.60
2439;DHT22;14509;47.992;7.848;2024-03-23T13:40:38;17.40;30.70
2439;DHT22;14509;47.992;7.848;2024-03-23T13:42:39;17.40;30.50
2439;DHT22;14509;47.992;7.848;2024-03-23T13:44:41;17.60;31.10
2439;DHT22;14509;47.992;7.848;2024-03-23T13:46:42;17.60;30.70
2439;DHT22;14509;47.992;7.848;2024-03-23T13:48:46;17.70;30.40
2439;DHT22;14509;47.992;7.848;2024-03-23T13:50:47;17.70;30.40
2439;DHT22;14509;47.992;7.848;2024-03-23T13:52:49;17.80;30.60
2439;DHT22;14509;47.992;7.848;2024-03-23T13:54:51;17.90;30.10
2439;DHT22;14509;47.992;7.848;2024-03-23T13:56:54;17.90;29.50